logo tempoitalia

Diretta Meteo Ronchi Dei Legionari, Italiagiovedì 13 agosto ore 16:50

Mappa
Sereno 30 °C Sereno 24 Ore: T.min 21 T.max 30
Ponente Sud/Sud-Ovest Km/h 16.7 Punto di rugiada: 20 °C Umidità: 55% Visibilità: 10 Km
Il sole sorge alle: 06:02 Il sole tramonta alle: 20:19
13 Agosto 2020 16:50 tempo osservato: Sereno Sereno 30 55 1013 vento: Nord S/SO 16.7
13 Agosto 2020 16:20 tempo osservato: Sereno Sereno 30 51 1013 vento: Nord S/SO 13
13 Agosto 2020 15:50 tempo osservato: Sereno Sereno 30 55 1014 vento: Nord SO 13
13 Agosto 2020 15:20 tempo osservato: Sereno Sereno 30 58 1014 vento: Nord S 14.8
13 Agosto 2020 14:50 tempo osservato: Sereno Sereno 30 58 1014 vento: Nord S/SO 14.8
13 Agosto 2020 14:20 tempo osservato: Sereno Sereno 30 58 1014 vento: Nord SO 14.8
13 Agosto 2020 13:50 tempo osservato: Sereno Sereno 30 51 1014 vento: Nord S/SO 13
13 Agosto 2020 13:20 tempo osservato: Sereno Sereno 30 55 1015 vento: Nord S/SO 14.8
13 Agosto 2020 12:50 tempo osservato: Sereno Sereno 30 66 1015 vento: Nord S/SO 13
13 Agosto 2020 12:20 tempo osservato: Sereno Sereno 30 55 1015 vento: Nord S 7.4
13 Agosto 2020 11:50 tempo osservato: Sereno Sereno 30 55 1015 vento: Nord S 9.3
13 Agosto 2020 11:20 tempo osservato: Sereno Sereno 29 58 1016 vento: Nord S/SO 7.4
13 Agosto 2020 10:50 tempo osservato: Sereno Sereno 29 54 1015 vento: Nord S 9.3
13 Agosto 2020 10:20 tempo osservato: Sereno Sereno 29 54 1015 vento: Nord N 3.7
13 Agosto 2020 09:50 tempo osservato: Poco Nuvoloso Poco Nuvoloso 28 61 1015 vento: Nord N 3.7
13 Agosto 2020 09:20 tempo osservato: Molto Nuvoloso Molto Nuvoloso 27 65 1015 vento: Nord N 5.5
13 Agosto 2020 08:50 tempo osservato: Poco Nuvoloso Poco Nuvoloso 26 69 1015 vento: Nord N 3.7
13 Agosto 2020 08:20 tempo osservato: Sereno Sereno 25 73 1015 vento: Nord N 5.5
13 Agosto 2020 07:50 tempo osservato: Poco Nuvoloso Poco Nuvoloso 25 69 1015 vento: Nord N 5.5
13 Agosto 2020 07:20 tempo osservato: Sereno Sereno 23 83 1015 vento: Nord E 7.4
13 Agosto 2020 06:50 tempo osservato: Sereno Sereno 23 78 1015 vento: Nord N 5.5
13 Agosto 2020 06:20 tempo osservato: Sereno Sereno 22 83 1015 vento: Nord N 5.5
13 Agosto 2020 05:50 tempo osservato: Sereno Sereno 22 83 1015 vento: Nord N 5.5
13 Agosto 2020 05:20 tempo osservato: Sereno Sereno 22 83 1015 vento: Nord N 5.5
13 Agosto 2020 04:50 tempo osservato: Sereno Sereno 21 88 1015 vento: Nord N 5.5
13 Agosto 2020 04:20 tempo osservato: Sereno Sereno 21 94 1015 vento: Nord N 3.7
13 Agosto 2020 03:50 tempo osservato: Sereno Sereno 22 88 1015 vento: Nord E/NE 7.4
13 Agosto 2020 03:20 tempo osservato: Nuvoloso Nuvoloso 22 88 1015 vento: Nord N 5.5
13 Agosto 2020 02:50 tempo osservato: Nuvoloso Nuvoloso 21 94 1015 vento: Nord N 1.8
13 Agosto 2020 02:20 tempo osservato: Sereno Sereno 21 94 1015 vento: Nord N 5.5
13 Agosto 2020 01:50 tempo osservato: Sereno Sereno 23 83 1015 vento: Nord N 3.7
13 Agosto 2020 01:20 tempo osservato: Sereno Sereno 23 83 1015 vento: Nord N 5.5
13 Agosto 2020 00:50 tempo osservato: Sereno Sereno 24 78 1015 vento: Nord N 5.5
13 Agosto 2020 00:20 tempo osservato: Sereno Sereno 23 83 1016 vento: Nord N 5.5
12 Agosto 2020 23:50 tempo osservato: Sereno Sereno 23 78 1016 vento: Nord N 1.8
12 Agosto 2020 23:20 tempo osservato: Sereno Sereno 24 69 1016 vento: Nord N 5.5
12 Agosto 2020 22:50 tempo osservato: Sereno Sereno 23 78 1016 vento: Nord N 5.5
12 Agosto 2020 22:20 tempo osservato: Sereno Sereno 23 78 1016 vento: Nord N 3.7
12 Agosto 2020 21:50 tempo osservato: Sereno Sereno 25 69 1015 vento: Nord N 5.5
12 Agosto 2020 21:20 tempo osservato: Sereno Sereno 25 78 1015 vento: Nord NE 7.4
12 Agosto 2020 20:50 tempo osservato: Sereno Sereno 25 78 1015 vento: Nord N 3.7
12 Agosto 2020 20:20 tempo osservato: Sereno Sereno 27 69 1015 vento: Nord N 3.7
12 Agosto 2020 19:50 tempo osservato: Sereno Sereno 28 65 1015 vento: Nord N 5.5
12 Agosto 2020 19:20 tempo osservato: Sereno Sereno 29 58 1015 vento: Nord N 5.5
12 Agosto 2020 18:50 tempo osservato: Sereno Sereno 29 62 1014 vento: Nord S 7.4